sensor_id;sensor_type;location;lat;lon;timestamp;P1;durP1;ratioP1;P2;durP2;ratioP2
21148;SDS011;10732;51.472;6.466;2023-05-10T00:00:33;21.83;;;17.35;;
21148;SDS011;10732;51.472;6.466;2023-05-10T00:02:59;21.85;;;17.98;;
21148;SDS011;10732;51.472;6.466;2023-05-10T00:05:24;24.05;;;17.98;;
21148;SDS011;10732;51.472;6.466;2023-05-10T00:07:50;22.77;;;17.77;;
21148;SDS011;10732;51.472;6.466;2023-05-10T00:10:15;23.20;;;18.30;;
21148;SDS011;10732;51.472;6.466;2023-05-10T00:12:41;23.05;;;18.52;;
21148;SDS011;10732;51.472;6.466;2023-05-10T00:15:07;23.05;;;18.50;;
21148;SDS011;10732;51.472;6.466;2023-05-10T00:17:33;23.27;;;18.85;;
21148;SDS011;10732;51.472;6.466;2023-05-10T00:19:58;26.13;;;19.98;;
21148;SDS011;10732;51.472;6.466;2023-05-10T00:22:25;24.20;;;19.60;;
21148;SDS011;10732;51.472;6.466;2023-05-10T00:24:50;27.42;;;20.67;;
21148;SDS011;10732;51.472;6.466;2023-05-10T00:27:16;27.77;;;20.80;;
21148;SDS011;10732;51.472;6.466;2023-05-10T00:29:41;25.05;;;19.90;;
21148;SDS011;10732;51.472;6.466;2023-05-10T00:32:07;27.73;;;21.83;;
21148;SDS011;10732;51.472;6.466;2023-05-10T00:34:32;30.13;;;22.25;;
21148;SDS011;10732;51.472;6.466;2023-05-10T00:36:58;27.15;;;21.08;;
21148;SDS011;10732;51.472;6.466;2023-05-10T00:39:23;26.50;;;20.98;;
21148;SDS011;10732;51.472;6.466;2023-05-10T00:41:49;28.60;;;20.30;;
21148;SDS011;10732;51.472;6.466;2023-05-10T00:44:15;27.67;;;20.00;;
21148;SDS011;10732;51.472;6.466;2023-05-10T00:46:40;29.30;;;19.80;;
21148;SDS011;10732;51.472;6.466;2023-05-10T00:49:06;24.55;;;18.92;;
21148;SDS011;10732;51.472;6.466;2023-05-10T00:51:32;25.38;;;20.02;;
21148;SDS011;10732;51.472;6.466;2023-05-10T00:53:58;29.17;;;20.85;;
21148;SDS011;10732;51.472;6.466;2023-05-10T00:56:24;25.58;;;19.90;;
21148;SDS011;10732;51.472;6.466;2023-05-10T00:58:50;30.15;;;21.85;;
21148;SDS011;10732;51.472;6.466;2023-05-10T01:01:16;27.92;;;21.48;;
21148;SDS011;10732;51.472;6.466;2023-05-10T01:03:42;29.00;;;21.65;;
21148;SDS011;10732;51.472;6.466;2023-05-10T01:06:08;26.25;;;20.20;;
21148;SDS011;10732;51.472;6.466;2023-05-10T01:08:35;28.83;;;21.58;;
21148;SDS011;10732;51.472;6.466;2023-05-10T01:11:01;27.42;;;20.77;;
21148;SDS011;10732;51.472;6.466;2023-05-10T01:15:57;29.98;;;22.40;;
21148;SDS011;10732;51.472;6.466;2023-05-10T01:18:24;30.90;;;22.17;;
21148;SDS011;10732;51.472;6.466;2023-05-10T01:20:54;27.55;;;21.10;;
21148;SDS011;10732;51.472;6.466;2023-05-10T01:26:14;28.58;;;18.63;;
21148;SDS011;10732;51.472;6.466;2023-05-10T01:34:40;25.65;;;17.90;;
21148;SDS011;10732;51.472;6.466;2023-05-10T01:37:13;23.50;;;17.40;;
21148;SDS011;10732;51.472;6.466;2023-05-10T01:39:45;23.08;;;17.38;;
21148;SDS011;10732;51.472;6.466;2023-05-10T01:42:20;23.33;;;17.73;;
21148;SDS011;10732;51.472;6.466;2023-05-10T01:47:44;27.70;;;18.88;;
21148;SDS011;10732;51.472;6.466;2023-05-10T01:50:18;31.00;;;17.67;;
21148;SDS011;10732;51.472;6.466;2023-05-10T01:52:48;27.58;;;18.58;;
21148;SDS011;10732;51.472;6.466;2023-05-10T01:55:20;29.23;;;18.75;;
21148;SDS011;10732;51.472;6.466;2023-05-10T01:57:48;25.88;;;18.15;;
21148;SDS011;10732;51.472;6.466;2023-05-10T02:00:19;27.30;;;18.67;;
21148;SDS011;10732;51.472;6.466;2023-05-10T02:02:46;26.52;;;17.98;;
21148;SDS011;10732;51.472;6.466;2023-05-10T02:05:14;25.30;;;18.15;;
21148;SDS011;10732;51.472;6.466;2023-05-10T02:07:41;27.33;;;18.50;;
21148;SDS011;10732;51.472;6.466;2023-05-10T02:10:07;25.00;;;17.65;;
21148;SDS011;10732;51.472;6.466;2023-05-10T02:12:36;28.80;;;19.05;;
21148;SDS011;10732;51.472;6.466;2023-05-10T02:15:04;27.05;;;17.40;;
21148;SDS011;10732;51.472;6.466;2023-05-10T02:17:32;28.98;;;18.90;;
21148;SDS011;10732;51.472;6.466;2023-05-10T02:19:58;24.92;;;17.30;;
21148;SDS011;10732;51.472;6.466;2023-05-10T02:22:26;23.90;;;16.77;;
21148;SDS011;10732;51.472;6.466;2023-05-10T02:24:54;24.15;;;16.80;;
21148;SDS011;10732;51.472;6.466;2023-05-10T02:27:22;23.95;;;16.73;;
21148;SDS011;10732;51.472;6.466;2023-05-10T02:29:49;25.75;;;17.25;;
21148;SDS011;10732;51.472;6.466;2023-05-10T02:32:16;26.52;;;16.98;;
21148;SDS011;10732;51.472;6.466;2023-05-10T02:34:42;25.52;;;17.33;;
21148;SDS011;10732;51.472;6.466;2023-05-10T02:37:10;26.65;;;16.45;;
21148;SDS011;10732;51.472;6.466;2023-05-10T02:39:38;23.27;;;16.35;;
21148;SDS011;10732;51.472;6.466;2023-05-10T02:42:08;25.27;;;17.17;;
21148;SDS011;10732;51.472;6.466;2023-05-10T02:44:39;24.95;;;16.50;;
21148;SDS011;10732;51.472;6.466;2023-05-10T02:47:06;25.25;;;17.05;;
21148;SDS011;10732;51.472;6.466;2023-05-10T02:49:32;25.30;;;17.63;;
21148;SDS011;10732;51.472;6.466;2023-05-10T02:52:00;27.77;;;18.23;;
21148;SDS011;10732;51.472;6.466;2023-05-10T02:54:30;29.15;;;17.85;;
21148;SDS011;10732;51.472;6.466;2023-05-10T02:57:00;27.48;;;18.63;;
21148;SDS011;10732;51.472;6.466;2023-05-10T02:59:29;27.48;;;17.77;;
21148;SDS011;10732;51.472;6.466;2023-05-10T03:01:55;26.73;;;18.38;;
21148;SDS011;10732;51.472;6.466;2023-05-10T03:04:21;27.83;;;18.08;;
21148;SDS011;10732;51.472;6.466;2023-05-10T03:06:47;28.75;;;17.67;;
21148;SDS011;10732;51.472;6.466;2023-05-10T03:09:13;27.70;;;18.33;;
21148;SDS011;10732;51.472;6.466;2023-05-10T03:14:33;31.02;;;18.17;;
21148;SDS011;10732;51.472;6.466;2023-05-10T03:17:07;26.10;;;16.98;;
21148;SDS011;10732;51.472;6.466;2023-05-10T03:20:09;27.45;;;18.17;;
21148;SDS011;10732;51.472;6.466;2023-05-10T03:22:34;30.65;;;18.75;;
21148;SDS011;10732;51.472;6.466;2023-05-10T03:25:12;30.98;;;19.20;;
21148;SDS011;10732;51.472;6.466;2023-05-10T03:27:41;30.92;;;18.95;;
21148;SDS011;10732;51.472;6.466;2023-05-10T03:30:10;34.20;;;20.83;;
21148;SDS011;10732;51.472;6.466;2023-05-10T03:32:37;32.67;;;21.13;;
21148;SDS011;10732;51.472;6.466;2023-05-10T03:35:06;34.00;;;21.48;;
21148;SDS011;10732;51.472;6.466;2023-05-10T03:37:36;34.50;;;21.77;;
21148;SDS011;10732;51.472;6.466;2023-05-10T03:40:02;36.08;;;22.55;;
21148;SDS011;10732;51.472;6.466;2023-05-10T03:42:28;36.38;;;21.48;;
21148;SDS011;10732;51.472;6.466;2023-05-10T03:44:54;39.72;;;22.13;;
21148;SDS011;10732;51.472;6.466;2023-05-10T03:47:20;36.03;;;22.50;;
21148;SDS011;10732;51.472;6.466;2023-05-10T03:49:46;36.75;;;23.55;;
21148;SDS011;10732;51.472;6.466;2023-05-10T03:52:12;37.25;;;23.63;;
21148;SDS011;10732;51.472;6.466;2023-05-10T03:54:37;40.47;;;24.40;;
21148;SDS011;10732;51.472;6.466;2023-05-10T03:57:03;38.83;;;25.05;;
21148;SDS011;10732;51.472;6.466;2023-05-10T03:59:29;39.50;;;25.25;;
21148;SDS011;10732;51.472;6.466;2023-05-10T04:01:55;43.30;;;26.42;;
21148;SDS011;10732;51.472;6.466;2023-05-10T04:04:20;41.17;;;26.60;;
21148;SDS011;10732;51.472;6.466;2023-05-10T04:06:46;45.83;;;29.60;;
21148;SDS011;10732;51.472;6.466;2023-05-10T04:09:12;44.72;;;28.27;;
21148;SDS011;10732;51.472;6.466;2023-05-10T04:11:38;44.22;;;28.73;;
21148;SDS011;10732;51.472;6.466;2023-05-10T04:14:04;46.70;;;28.85;;
21148;SDS011;10732;51.472;6.466;2023-05-10T04:16:29;48.28;;;30.17;;
21148;SDS011;10732;51.472;6.466;2023-05-10T04:18:55;50.22;;;30.88;;
21148;SDS011;10732;51.472;6.466;2023-05-10T04:21:20;48.50;;;31.67;;
21148;SDS011;10732;51.472;6.466;2023-05-10T04:23:46;52.20;;;30.67;;
21148;SDS011;10732;51.472;6.466;2023-05-10T04:26:12;52.90;;;31.17;;
21148;SDS011;10732;51.472;6.466;2023-05-10T04:28:38;51.95;;;30.48;;
21148;SDS011;10732;51.472;6.466;2023-05-10T04:31:04;50.83;;;32.10;;
21148;SDS011;10732;51.472;6.466;2023-05-10T04:33:31;50.47;;;32.38;;
21148;SDS011;10732;51.472;6.466;2023-05-10T04:35:57;49.97;;;32.72;;
21148;SDS011;10732;51.472;6.466;2023-05-10T04:38:23;54.40;;;32.70;;
21148;SDS011;10732;51.472;6.466;2023-05-10T04:40:48;52.50;;;33.10;;
21148;SDS011;10732;51.472;6.466;2023-05-10T04:43:14;50.28;;;32.72;;
21148;SDS011;10732;51.472;6.466;2023-05-10T04:45:39;50.53;;;32.47;;
21148;SDS011;10732;51.472;6.466;2023-05-10T04:48:05;50.65;;;33.40;;
21148;SDS011;10732;51.472;6.466;2023-05-10T04:50:31;51.92;;;32.72;;
21148;SDS011;10732;51.472;6.466;2023-05-10T04:52:56;49.40;;;31.70;;
21148;SDS011;10732;51.472;6.466;2023-05-10T04:55:22;52.83;;;32.45;;
21148;SDS011;10732;51.472;6.466;2023-05-10T04:57:48;50.72;;;32.13;;
21148;SDS011;10732;51.472;6.466;2023-05-10T05:00:13;53.15;;;32.30;;
21148;SDS011;10732;51.472;6.466;2023-05-10T05:02:42;47.88;;;32.83;;
21148;SDS011;10732;51.472;6.466;2023-05-10T05:05:09;47.55;;;31.90;;
21148;SDS011;10732;51.472;6.466;2023-05-10T05:07:35;47.83;;;33.10;;
21148;SDS011;10732;51.472;6.466;2023-05-10T05:10:00;49.20;;;32.85;;
21148;SDS011;10732;51.472;6.466;2023-05-10T05:12:26;49.20;;;32.10;;
21148;SDS011;10732;51.472;6.466;2023-05-10T05:14:51;49.65;;;31.98;;
21148;SDS011;10732;51.472;6.466;2023-05-10T05:17:17;49.20;;;31.40;;
21148;SDS011;10732;51.472;6.466;2023-05-10T05:19:42;52.22;;;32.85;;
21148;SDS011;10732;51.472;6.466;2023-05-10T05:22:08;53.17;;;33.25;;
21148;SDS011;10732;51.472;6.466;2023-05-10T05:24:37;47.65;;;32.05;;
21148;SDS011;10732;51.472;6.466;2023-05-10T05:27:03;54.42;;;34.00;;
21148;SDS011;10732;51.472;6.466;2023-05-10T05:29:28;53.80;;;33.55;;
21148;SDS011;10732;51.472;6.466;2023-05-10T05:31:54;57.55;;;33.65;;
21148;SDS011;10732;51.472;6.466;2023-05-10T05:34:20;56.42;;;33.53;;
21148;SDS011;10732;51.472;6.466;2023-05-10T05:36:47;57.33;;;35.33;;
21148;SDS011;10732;51.472;6.466;2023-05-10T05:39:12;57.80;;;35.28;;
21148;SDS011;10732;51.472;6.466;2023-05-10T05:41:38;56.45;;;34.25;;
21148;SDS011;10732;51.472;6.466;2023-05-10T05:44:04;54.42;;;35.55;;
21148;SDS011;10732;51.472;6.466;2023-05-10T05:46:29;56.47;;;34.78;;
21148;SDS011;10732;51.472;6.466;2023-05-10T05:48:55;60.70;;;36.70;;
21148;SDS011;10732;51.472;6.466;2023-05-10T05:51:21;61.65;;;34.80;;
21148;SDS011;10732;51.472;6.466;2023-05-10T05:53:46;56.75;;;34.65;;
21148;SDS011;10732;51.472;6.466;2023-05-10T05:56:12;60.63;;;37.63;;
21148;SDS011;10732;51.472;6.466;2023-05-10T05:58:37;57.40;;;36.63;;
21148;SDS011;10732;51.472;6.466;2023-05-10T06:01:03;58.10;;;36.95;;
21148;SDS011;10732;51.472;6.466;2023-05-10T06:03:28;57.35;;;35.25;;
21148;SDS011;10732;51.472;6.466;2023-05-10T06:05:54;58.95;;;34.75;;
21148;SDS011;10732;51.472;6.466;2023-05-10T06:08:19;54.90;;;34.35;;
21148;SDS011;10732;51.472;6.466;2023-05-10T06:10:45;61.95;;;36.47;;
21148;SDS011;10732;51.472;6.466;2023-05-10T06:13:11;57.67;;;36.15;;
21148;SDS011;10732;51.472;6.466;2023-05-10T06:15:36;60.30;;;36.15;;
21148;SDS011;10732;51.472;6.466;2023-05-10T06:18:02;60.33;;;35.45;;
21148;SDS011;10732;51.472;6.466;2023-05-10T06:20:28;67.43;;;37.42;;
21148;SDS011;10732;51.472;6.466;2023-05-10T06:22:56;59.75;;;36.70;;
21148;SDS011;10732;51.472;6.466;2023-05-10T06:25:22;67.10;;;37.05;;
21148;SDS011;10732;51.472;6.466;2023-05-10T06:27:47;60.78;;;35.95;;
21148;SDS011;10732;51.472;6.466;2023-05-10T06:30:13;62.35;;;36.58;;
21148;SDS011;10732;51.472;6.466;2023-05-10T06:32:40;62.17;;;35.95;;
21148;SDS011;10732;51.472;6.466;2023-05-10T06:35:06;68.25;;;36.05;;
21148;SDS011;10732;51.472;6.466;2023-05-10T06:37:32;63.10;;;36.17;;
21148;SDS011;10732;51.472;6.466;2023-05-10T06:39:58;55.10;;;33.00;;
21148;SDS011;10732;51.472;6.466;2023-05-10T06:42:23;61.20;;;34.60;;
21148;SDS011;10732;51.472;6.466;2023-05-10T06:44:50;60.58;;;33.75;;
21148;SDS011;10732;51.472;6.466;2023-05-10T06:47:16;59.55;;;33.15;;
21148;SDS011;10732;51.472;6.466;2023-05-10T06:49:42;59.20;;;34.25;;
21148;SDS011;10732;51.472;6.466;2023-05-10T06:52:07;56.95;;;32.33;;
21148;SDS011;10732;51.472;6.466;2023-05-10T06:54:33;58.25;;;31.95;;
21148;SDS011;10732;51.472;6.466;2023-05-10T06:56:58;57.42;;;32.38;;
21148;SDS011;10732;51.472;6.466;2023-05-10T06:59:24;58.63;;;33.70;;
21148;SDS011;10732;51.472;6.466;2023-05-10T07:01:50;58.67;;;32.95;;
21148;SDS011;10732;51.472;6.466;2023-05-10T07:04:16;63.97;;;35.00;;
21148;SDS011;10732;51.472;6.466;2023-05-10T07:06:42;60.00;;;33.22;;
21148;SDS011;10732;51.472;6.466;2023-05-10T07:09:08;62.03;;;34.35;;
21148;SDS011;10732;51.472;6.466;2023-05-10T07:11:33;60.70;;;33.15;;
21148;SDS011;10732;51.472;6.466;2023-05-10T07:13:59;57.70;;;32.75;;
21148;SDS011;10732;51.472;6.466;2023-05-10T07:16:25;54.58;;;32.55;;
21148;SDS011;10732;51.472;6.466;2023-05-10T07:18:50;55.53;;;32.83;;
21148;SDS011;10732;51.472;6.466;2023-05-10T07:21:17;55.05;;;31.42;;
21148;SDS011;10732;51.472;6.466;2023-05-10T07:23:43;56.05;;;33.28;;
21148;SDS011;10732;51.472;6.466;2023-05-10T07:26:08;55.45;;;33.28;;
21148;SDS011;10732;51.472;6.466;2023-05-10T07:28:35;50.85;;;30.35;;
21148;SDS011;10732;51.472;6.466;2023-05-10T07:31:02;54.58;;;32.08;;
21148;SDS011;10732;51.472;6.466;2023-05-10T07:33:28;52.85;;;31.90;;
21148;SDS011;10732;51.472;6.466;2023-05-10T07:35:53;47.40;;;29.45;;
21148;SDS011;10732;51.472;6.466;2023-05-10T07:38:19;47.53;;;29.92;;
21148;SDS011;10732;51.472;6.466;2023-05-10T07:40:44;48.10;;;29.35;;
21148;SDS011;10732;51.472;6.466;2023-05-10T07:43:10;46.50;;;29.45;;
21148;SDS011;10732;51.472;6.466;2023-05-10T07:45:35;54.13;;;30.15;;
21148;SDS011;10732;51.472;6.466;2023-05-10T07:48:01;49.15;;;28.65;;
21148;SDS011;10732;51.472;6.466;2023-05-10T07:50:26;50.88;;;29.33;;
21148;SDS011;10732;51.472;6.466;2023-05-10T07:52:52;43.33;;;27.38;;
21148;SDS011;10732;51.472;6.466;2023-05-10T07:55:18;44.75;;;28.85;;
21148;SDS011;10732;51.472;6.466;2023-05-10T07:57:44;39.75;;;26.38;;
21148;SDS011;10732;51.472;6.466;2023-05-10T08:00:11;40.92;;;25.25;;
21148;SDS011;10732;51.472;6.466;2023-05-10T08:02:38;34.65;;;24.27;;
21148;SDS011;10732;51.472;6.466;2023-05-10T08:05:03;28.50;;;20.77;;
21148;SDS011;10732;51.472;6.466;2023-05-10T08:07:30;27.02;;;19.17;;
21148;SDS011;10732;51.472;6.466;2023-05-10T08:09:55;24.50;;;18.30;;
21148;SDS011;10732;51.472;6.466;2023-05-10T08:12:21;25.55;;;18.20;;
21148;SDS011;10732;51.472;6.466;2023-05-10T08:14:46;25.58;;;18.67;;
21148;SDS011;10732;51.472;6.466;2023-05-10T08:17:12;23.80;;;18.15;;
21148;SDS011;10732;51.472;6.466;2023-05-10T08:19:37;22.88;;;17.88;;
21148;SDS011;10732;51.472;6.466;2023-05-10T08:22:03;23.92;;;17.85;;
21148;SDS011;10732;51.472;6.466;2023-05-10T08:24:29;23.60;;;18.77;;
21148;SDS011;10732;51.472;6.466;2023-05-10T08:26:54;26.85;;;20.75;;
21148;SDS011;10732;51.472;6.466;2023-05-10T08:29:20;28.67;;;20.30;;
21148;SDS011;10732;51.472;6.466;2023-05-10T08:31:45;26.52;;;19.35;;
21148;SDS011;10732;51.472;6.466;2023-05-10T08:34:11;27.90;;;18.67;;
21148;SDS011;10732;51.472;6.466;2023-05-10T08:36:36;22.67;;;17.90;;
21148;SDS011;10732;51.472;6.466;2023-05-10T08:39:02;24.50;;;18.10;;
21148;SDS011;10732;51.472;6.466;2023-05-10T08:41:27;21.35;;;17.40;;
21148;SDS011;10732;51.472;6.466;2023-05-10T08:43:55;22.63;;;16.75;;
21148;SDS011;10732;51.472;6.466;2023-05-10T08:46:21;19.63;;;15.65;;
21148;SDS011;10732;51.472;6.466;2023-05-10T08:48:48;20.65;;;15.57;;
21148;SDS011;10732;51.472;6.466;2023-05-10T08:51:17;21.25;;;16.58;;
21148;SDS011;10732;51.472;6.466;2023-05-10T08:53:44;20.73;;;16.05;;
21148;SDS011;10732;51.472;6.466;2023-05-10T08:56:10;25.63;;;17.50;;
21148;SDS011;10732;51.472;6.466;2023-05-10T08:58:37;22.08;;;16.80;;
21148;SDS011;10732;51.472;6.466;2023-05-10T09:01:03;23.38;;;16.88;;
21148;SDS011;10732;51.472;6.466;2023-05-10T09:03:30;27.95;;;18.30;;
21148;SDS011;10732;51.472;6.466;2023-05-10T09:05:56;22.88;;;17.60;;
21148;SDS011;10732;51.472;6.466;2023-05-10T09:08:25;24.30;;;18.60;;
21148;SDS011;10732;51.472;6.466;2023-05-10T09:10:51;27.55;;;18.70;;
21148;SDS011;10732;51.472;6.466;2023-05-10T09:13:18;29.92;;;18.30;;
21148;SDS011;10732;51.472;6.466;2023-05-10T09:15:45;26.98;;;18.23;;
21148;SDS011;10732;51.472;6.466;2023-05-10T09:18:12;27.50;;;17.88;;
21148;SDS011;10732;51.472;6.466;2023-05-10T09:20:37;24.80;;;17.92;;
21148;SDS011;10732;51.472;6.466;2023-05-10T09:23:03;24.98;;;17.02;;
21148;SDS011;10732;51.472;6.466;2023-05-10T09:25:29;25.77;;;17.73;;
21148;SDS011;10732;51.472;6.466;2023-05-10T09:27:54;23.90;;;17.98;;
21148;SDS011;10732;51.472;6.466;2023-05-10T09:32:48;28.35;;;19.10;;
21148;SDS011;10732;51.472;6.466;2023-05-10T09:35:16;26.20;;;18.30;;
21148;SDS011;10732;51.472;6.466;2023-05-10T09:37:44;23.58;;;16.63;;
21148;SDS011;10732;51.472;6.466;2023-05-10T09:40:11;24.85;;;17.38;;
21148;SDS011;10732;51.472;6.466;2023-05-10T09:42:39;25.40;;;18.73;;
21148;SDS011;10732;51.472;6.466;2023-05-10T09:45:07;24.38;;;17.50;;
21148;SDS011;10732;51.472;6.466;2023-05-10T09:47:35;29.38;;;18.80;;
21148;SDS011;10732;51.472;6.466;2023-05-10T09:50:02;25.52;;;17.33;;
21148;SDS011;10732;51.472;6.466;2023-05-10T09:55:41;26.48;;;19.52;;
21148;SDS011;10732;51.472;6.466;2023-05-10T09:58:11;28.67;;;20.92;;
21148;SDS011;10732;51.472;6.466;2023-05-10T10:00:41;27.23;;;20.63;;
21148;SDS011;10732;51.472;6.466;2023-05-10T10:03:12;28.83;;;21.13;;
21148;SDS011;10732;51.472;6.466;2023-05-10T10:05:40;28.85;;;22.10;;
21148;SDS011;10732;51.472;6.466;2023-05-10T10:08:08;35.22;;;22.70;;
21148;SDS011;10732;51.472;6.466;2023-05-10T10:10:33;31.02;;;23.30;;
21148;SDS011;10732;51.472;6.466;2023-05-10T10:12:59;31.92;;;22.60;;
21148;SDS011;10732;51.472;6.466;2023-05-10T10:15:26;28.98;;;21.05;;
21148;SDS011;10732;51.472;6.466;2023-05-10T10:17:52;28.33;;;22.08;;
21148;SDS011;10732;51.472;6.466;2023-05-10T10:20:19;28.25;;;20.73;;
21148;SDS011;10732;51.472;6.466;2023-05-10T10:22:46;29.23;;;20.40;;
21148;SDS011;10732;51.472;6.466;2023-05-10T10:25:12;24.70;;;18.67;;
21148;SDS011;10732;51.472;6.466;2023-05-10T10:36:31;24.60;;;18.85;;
21148;SDS011;10732;51.472;6.466;2023-05-10T10:39:02;23.42;;;17.58;;
21148;SDS011;10732;51.472;6.466;2023-05-10T10:41:35;22.42;;;17.17;;
21148;SDS011;10732;51.472;6.466;2023-05-10T10:49:31;22.70;;;16.23;;
21148;SDS011;10732;51.472;6.466;2023-05-10T10:54:58;20.38;;;14.88;;
21148;SDS011;10732;51.472;6.466;2023-05-10T10:57:26;21.35;;;14.05;;
21148;SDS011;10732;51.472;6.466;2023-05-10T11:02:44;15.85;;;13.07;;
21148;SDS011;10732;51.472;6.466;2023-05-10T11:05:24;15.98;;;12.95;;
21148;SDS011;10732;51.472;6.466;2023-05-10T11:07:59;17.05;;;12.55;;
21148;SDS011;10732;51.472;6.466;2023-05-10T11:10:31;15.30;;;12.10;;
21148;SDS011;10732;51.472;6.466;2023-05-10T11:13:04;12.32;;;10.80;;
21148;SDS011;10732;51.472;6.466;2023-05-10T11:15:48;13.23;;;9.85;;
21148;SDS011;10732;51.472;6.466;2023-05-10T11:20:44;12.25;;;9.18;;
21148;SDS011;10732;51.472;6.466;2023-05-10T11:23:14;12.30;;;9.52;;
21148;SDS011;10732;51.472;6.466;2023-05-10T11:25:44;13.10;;;9.25;;
21148;SDS011;10732;51.472;6.466;2023-05-10T11:28:11;11.60;;;8.55;;
21148;SDS011;10732;51.472;6.466;2023-05-10T11:30:41;12.38;;;9.25;;
21148;SDS011;10732;51.472;6.466;2023-05-10T11:33:08;11.93;;;8.63;;
21148;SDS011;10732;51.472;6.466;2023-05-10T11:35:40;13.23;;;8.82;;
21148;SDS011;10732;51.472;6.466;2023-05-10T11:38:06;12.45;;;8.85;;
21148;SDS011;10732;51.472;6.466;2023-05-10T11:40:33;9.95;;;8.15;;
21148;SDS011;10732;51.472;6.466;2023-05-10T11:42:59;10.52;;;8.77;;
21148;SDS011;10732;51.472;6.466;2023-05-10T11:45:24;11.82;;;8.57;;
21148;SDS011;10732;51.472;6.466;2023-05-10T11:47:51;9.70;;;7.25;;
21148;SDS011;10732;51.472;6.466;2023-05-10T11:50:16;9.90;;;8.77;;
21148;SDS011;10732;51.472;6.466;2023-05-10T11:52:42;12.52;;;8.15;;
21148;SDS011;10732;51.472;6.466;2023-05-10T11:55:08;9.13;;;8.10;;
21148;SDS011;10732;51.472;6.466;2023-05-10T11:57:34;10.57;;;7.80;;
21148;SDS011;10732;51.472;6.466;2023-05-10T12:00:03;11.43;;;8.32;;
21148;SDS011;10732;51.472;6.466;2023-05-10T12:02:29;16.48;;;8.82;;
21148;SDS011;10732;51.472;6.466;2023-05-10T12:04:55;12.43;;;7.88;;
21148;SDS011;10732;51.472;6.466;2023-05-10T12:07:21;9.25;;;7.45;;
21148;SDS011;10732;51.472;6.466;2023-05-10T12:10:06;9.48;;;7.07;;
21148;SDS011;10732;51.472;6.466;2023-05-10T12:12:37;10.27;;;6.90;;
21148;SDS011;10732;51.472;6.466;2023-05-10T12:15:04;9.90;;;7.25;;
21148;SDS011;10732;51.472;6.466;2023-05-10T12:17:31;6.95;;;6.13;;
21148;SDS011;10732;51.472;6.466;2023-05-10T12:20:12;7.60;;;5.57;;
21148;SDS011;10732;51.472;6.466;2023-05-10T12:22:52;8.38;;;4.82;;
21148;SDS011;10732;51.472;6.466;2023-05-10T12:25:19;6.43;;;5.70;;
21148;SDS011;10732;51.472;6.466;2023-05-10T12:27:53;7.00;;;5.72;;
21148;SDS011;10732;51.472;6.466;2023-05-10T12:30:21;7.10;;;5.90;;
21148;SDS011;10732;51.472;6.466;2023-05-10T12:32:47;8.25;;;6.78;;
21148;SDS011;10732;51.472;6.466;2023-05-10T12:35:13;7.70;;;6.38;;
21148;SDS011;10732;51.472;6.466;2023-05-10T12:37:40;8.50;;;6.20;;
21148;SDS011;10732;51.472;6.466;2023-05-10T12:40:07;8.52;;;5.85;;
21148;SDS011;10732;51.472;6.466;2023-05-10T12:42:34;7.85;;;6.35;;
21148;SDS011;10732;51.472;6.466;2023-05-10T12:45:03;9.85;;;7.10;;
21148;SDS011;10732;51.472;6.466;2023-05-10T12:47:30;7.80;;;6.82;;
21148;SDS011;10732;51.472;6.466;2023-05-10T12:49:59;8.70;;;7.32;;
21148;SDS011;10732;51.472;6.466;2023-05-10T12:52:26;9.00;;;8.10;;
21148;SDS011;10732;51.472;6.466;2023-05-10T12:54:52;8.82;;;7.95;;
21148;SDS011;10732;51.472;6.466;2023-05-10T12:57:19;9.20;;;8.30;;
21148;SDS011;10732;51.472;6.466;2023-05-10T12:59:45;10.43;;;7.78;;
21148;SDS011;10732;51.472;6.466;2023-05-10T13:02:11;12.23;;;9.13;;
21148;SDS011;10732;51.472;6.466;2023-05-10T13:04:36;11.18;;;10.02;;
21148;SDS011;10732;51.472;6.466;2023-05-10T13:07:05;11.27;;;9.93;;
21148;SDS011;10732;51.472;6.466;2023-05-10T13:09:33;10.63;;;9.45;;
21148;SDS011;10732;51.472;6.466;2023-05-10T13:11:59;12.68;;;10.20;;
21148;SDS011;10732;51.472;6.466;2023-05-10T13:14:24;11.70;;;9.77;;
21148;SDS011;10732;51.472;6.466;2023-05-10T13:16:50;10.82;;;9.38;;
21148;SDS011;10732;51.472;6.466;2023-05-10T13:19:16;10.68;;;9.35;;
21148;SDS011;10732;51.472;6.466;2023-05-10T13:21:42;11.23;;;9.20;;
21148;SDS011;10732;51.472;6.466;2023-05-10T13:24:09;11.77;;;9.15;;
21148;SDS011;10732;51.472;6.466;2023-05-10T13:26:35;11.13;;;9.98;;
21148;SDS011;10732;51.472;6.466;2023-05-10T13:29:02;9.57;;;8.68;;
21148;SDS011;10732;51.472;6.466;2023-05-10T13:31:28;12.35;;;9.52;;
21148;SDS011;10732;51.472;6.466;2023-05-10T13:33:54;12.05;;;10.30;;
21148;SDS011;10732;51.472;6.466;2023-05-10T13:36:19;12.15;;;10.65;;
21148;SDS011;10732;51.472;6.466;2023-05-10T13:38:45;12.90;;;10.80;;
21148;SDS011;10732;51.472;6.466;2023-05-10T13:41:10;12.13;;;10.68;;
21148;SDS011;10732;51.472;6.466;2023-05-10T13:43:36;13.25;;;10.88;;
21148;SDS011;10732;51.472;6.466;2023-05-10T13:46:01;14.35;;;12.38;;
21148;SDS011;10732;51.472;6.466;2023-05-10T13:48:27;13.75;;;12.05;;
21148;SDS011;10732;51.472;6.466;2023-05-10T13:50:53;14.57;;;12.77;;
21148;SDS011;10732;51.472;6.466;2023-05-10T13:53:19;16.65;;;14.90;;
21148;SDS011;10732;51.472;6.466;2023-05-10T13:55:44;19.33;;;15.60;;
21148;SDS011;10732;51.472;6.466;2023-05-10T13:58:10;18.98;;;14.95;;
21148;SDS011;10732;51.472;6.466;2023-05-10T14:00:35;19.88;;;16.40;;
21148;SDS011;10732;51.472;6.466;2023-05-10T14:03:01;18.20;;;16.30;;
21148;SDS011;10732;51.472;6.466;2023-05-10T14:05:27;16.25;;;14.55;;
21148;SDS011;10732;51.472;6.466;2023-05-10T14:07:52;20.33;;;15.57;;
21148;SDS011;10732;51.472;6.466;2023-05-10T14:10:18;16.08;;;14.38;;
21148;SDS011;10732;51.472;6.466;2023-05-10T14:12:44;15.88;;;14.18;;
21148;SDS011;10732;51.472;6.466;2023-05-10T14:15:10;16.98;;;14.55;;
21148;SDS011;10732;51.472;6.466;2023-05-10T14:17:36;17.90;;;16.00;;
21148;SDS011;10732;51.472;6.466;2023-05-10T14:20:02;19.98;;;16.02;;
21148;SDS011;10732;51.472;6.466;2023-05-10T14:22:28;17.65;;;15.20;;
21148;SDS011;10732;51.472;6.466;2023-05-10T14:24:54;18.77;;;14.63;;
21148;SDS011;10732;51.472;6.466;2023-05-10T14:27:20;10.82;;;8.68;;
21148;SDS011;10732;51.472;6.466;2023-05-10T14:29:46;6.22;;;5.60;;
21148;SDS011;10732;51.472;6.466;2023-05-10T14:32:12;7.90;;;5.32;;
21148;SDS011;10732;51.472;6.466;2023-05-10T14:34:38;5.90;;;3.95;;
21148;SDS011;10732;51.472;6.466;2023-05-10T14:37:03;4.13;;;3.40;;
21148;SDS011;10732;51.472;6.466;2023-05-10T14:39:29;5.93;;;3.97;;
21148;SDS011;10732;51.472;6.466;2023-05-10T14:41:55;5.88;;;3.85;;
21148;SDS011;10732;51.472;6.466;2023-05-10T14:44:21;5.82;;;3.80;;
21148;SDS011;10732;51.472;6.466;2023-05-10T14:46:46;4.18;;;3.33;;
21148;SDS011;10732;51.472;6.466;2023-05-10T14:49:13;4.68;;;3.50;;
21148;SDS011;10732;51.472;6.466;2023-05-10T14:51:38;5.40;;;3.50;;
21148;SDS011;10732;51.472;6.466;2023-05-10T14:54:04;5.57;;;3.67;;
21148;SDS011;10732;51.472;6.466;2023-05-10T14:56:31;7.03;;;4.28;;
21148;SDS011;10732;51.472;6.466;2023-05-10T14:58:57;5.57;;;4.70;;
21148;SDS011;10732;51.472;6.466;2023-05-10T15:01:22;6.25;;;5.63;;
21148;SDS011;10732;51.472;6.466;2023-05-10T15:03:48;6.07;;;5.25;;
21148;SDS011;10732;51.472;6.466;2023-05-10T15:06:14;6.93;;;5.90;;
21148;SDS011;10732;51.472;6.466;2023-05-10T15:08:41;6.53;;;5.82;;